Time;durP1;ratioP1;P1;durP2;ratioP2;P2;SDS_P1;SDS_P2;PMS_P1;PMS_P2;Temp;Humidity;BMP_temperature;BMP_pressure;BME280_temperature;BME280_humidity;BME280_pressure;Samples;Min_cycle;Max_cycle;Signal;HPM_P1;HPM_P2
2023/03/05 00:00:43;;;;;;;11.68;5.60;;;;;;;;;;5046848;28;20036;-50
2023/03/05 00:03:08;;;;;;;15.25;5.97;;;;;;;;;;5047184;28;20032;-48
2023/03/05 00:05:33;;;;;;;9.73;5.43;;;;;;;;;;5033237;28;20664;-45
2023/03/05 00:07:59;;;;;;;13.45;5.50;;;;;;;;;;5019407;28;20116;-46
2023/03/05 00:10:24;;;;;;;13.07;6.07;;;;;;;;;;5025618;28;20037;-48
2023/03/05 00:12:49;;;;;;;13.70;6.53;;;;;;;;;;5026701;28;20680;-46
2023/03/05 00:15:15;;;;;;;15.95;5.55;;;;;;;;;;5023318;28;20395;-46
2023/03/05 00:17:40;;;;;;;9.90;5.07;;;;;;;;;;5030987;28;20049;-45
2023/03/05 00:20:06;;;;;;;12.32;5.72;;;;;;;;;;5045626;28;20041;-48
2023/03/05 00:22:33;;;;;;;15.43;5.93;;;;;;;;;;5032674;28;20331;-45
2023/03/05 00:24:59;;;;;;;14.75;5.72;;;;;;;;;;5024848;28;20510;-47
2023/03/05 00:27:24;;;;;;;14.52;6.78;;;;;;;;;;5026738;28;20107;-48
2023/03/05 00:29:49;;;;;;;10.77;5.80;;;;;;;;;;5026766;28;20025;-47
2023/03/05 00:32:15;;;;;;;13.32;5.70;;;;;;;;;;5025723;28;20124;-44
2023/03/05 00:34:40;;;;;;;12.48;5.53;;;;;;;;;;5026078;28;20052;-46
2023/03/05 00:37:06;;;;;;;10.90;6.15;;;;;;;;;;5026289;28;20044;-45
2023/03/05 00:39:31;;;;;;;11.43;5.75;;;;;;;;;;5025518;28;20038;-45
2023/03/05 00:41:57;;;;;;;11.98;5.53;;;;;;;;;;5026566;28;20036;-48
2023/03/05 00:44:23;;;;;;;12.80;5.65;;;;;;;;;;5023423;28;20044;-46
2023/03/05 00:46:48;;;;;;;11.23;5.28;;;;;;;;;;5023970;28;20083;-48
2023/03/05 00:49:14;;;;;;;11.82;5.35;;;;;;;;;;5004718;28;20029;-46
2023/03/05 00:51:39;;;;;;;12.13;5.35;;;;;;;;;;5006646;28;20034;-48
2023/03/05 00:54:05;;;;;;;11.30;5.38;;;;;;;;;;5027684;28;20029;-46
2023/03/05 00:56:31;;;;;;;15.25;5.93;;;;;;;;;;5046087;28;20025;-48
2023/03/05 00:58:56;;;;;;;11.23;5.53;;;;;;;;;;5045910;28;20042;-45
2023/03/05 01:01:23;;;;;;;11.43;5.38;;;;;;;;;;5045770;28;20048;-45
2023/03/05 01:03:48;;;;;;;14.52;5.72;;;;;;;;;;5046337;28;20029;-46
2023/03/05 01:06:17;;;;;;;11.30;5.35;;;;;;;;;;5037679;28;20017;-47
2023/03/05 01:08:44;;;;;;;10.68;5.32;;;;;;;;;;5025919;28;20025;-46
2023/03/05 01:11:11;;;;;;;9.80;4.82;;;;;;;;;;5025866;28;20582;-47
2023/03/05 01:13:36;;;;;;;13.45;6.20;;;;;;;;;;5025312;28;20078;-47
2023/03/05 01:16:02;;;;;;;13.32;5.20;;;;;;;;;;5021493;28;20062;-46
2023/03/05 01:18:28;;;;;;;9.95;5.13;;;;;;;;;;5045413;28;20109;-47
2023/03/05 01:20:53;;;;;;;13.40;5.32;;;;;;;;;;5050334;28;20017;-47
2023/03/05 01:23:19;;;;;;;8.15;4.32;;;;;;;;;;5040537;28;20030;-46
2023/03/05 01:25:44;;;;;;;9.90;5.10;;;;;;;;;;5027957;28;20049;-47
2023/03/05 01:28:10;;;;;;;9.35;4.38;;;;;;;;;;5029174;28;20045;-46
2023/03/05 01:30:35;;;;;;;8.80;4.30;;;;;;;;;;5019494;28;20041;-48
2023/03/05 01:33:01;;;;;;;10.73;4.13;;;;;;;;;;5029054;28;20029;-48
2023/03/05 01:35:27;;;;;;;10.40;4.55;;;;;;;;;;5029850;28;20117;-46
2023/03/05 01:37:53;;;;;;;9.55;4.63;;;;;;;;;;5029673;28;20550;-47
2023/03/05 01:40:26;;;;;;;13.45;4.90;;;;;;;;;;5029185;28;20037;-47
2023/03/05 01:43:20;;;;;;;10.23;4.57;;;;;;;;;;5029785;28;20553;-46
2023/03/05 01:46:23;;;;;;;10.73;4.88;;;;;;;;;;5029422;28;20040;-48
2023/03/05 01:48:54;;;;;;;9.38;4.47;;;;;;;;;;5027266;28;20034;-48
2023/03/05 01:51:23;;;;;;;12.07;4.38;;;;;;;;;;5028736;28;20029;-46
2023/03/05 01:53:48;;;;;;;10.05;5.00;;;;;;;;;;5029016;28;20408;-47
2023/03/05 01:56:14;;;;;;;12.43;5.10;;;;;;;;;;5029161;28;20737;-47
2023/03/05 01:58:40;;;;;;;11.02;4.70;;;;;;;;;;5025664;28;20083;-46
2023/03/05 02:01:05;;;;;;;14.02;5.35;;;;;;;;;;5019534;28;20029;-49
2023/03/05 02:03:32;;;;;;;10.02;4.78;;;;;;;;;;5008414;28;20040;-48
2023/03/05 02:05:58;;;;;;;10.63;4.68;;;;;;;;;;5014223;28;20097;-47
2023/03/05 02:08:23;;;;;;;13.35;5.82;;;;;;;;;;5048291;28;20109;-47
2023/03/05 02:10:55;;;;;;;10.45;5.00;;;;;;;;;;5049194;28;20040;-48
2023/03/05 02:13:26;;;;;;;10.30;4.85;;;;;;;;;;5048495;28;20029;-45
2023/03/05 02:15:53;;;;;;;19.90;5.80;;;;;;;;;;5033710;28;20044;-46
2023/03/05 02:18:19;;;;;;;10.02;5.03;;;;;;;;;;5027843;28;20029;-46
2023/03/05 02:20:50;;;;;;;12.90;5.65;;;;;;;;;;5048464;28;20028;-46
2023/03/05 02:23:17;;;;;;;9.18;4.20;;;;;;;;;;5048080;28;20040;-47
2023/03/05 02:25:43;;;;;;;13.80;5.22;;;;;;;;;;5048014;28;20059;-48
2023/03/05 02:28:29;;;;;;;8.68;4.38;;;;;;;;;;5048682;28;20057;-46
2023/03/05 02:30:54;;;;;;;13.50;5.00;;;;;;;;;;5047864;28;20617;-45
2023/03/05 02:33:20;;;;;;;13.80;5.43;;;;;;;;;;5048297;28;20586;-45
2023/03/05 02:35:46;;;;;;;13.43;6.60;;;;;;;;;;5048568;28;20021;-49
2023/03/05 02:38:13;;;;;;;15.65;6.10;;;;;;;;;;5048287;28;20426;-49
2023/03/05 02:40:38;;;;;;;18.02;5.78;;;;;;;;;;5048135;28;20040;-45
2023/03/05 02:43:04;;;;;;;15.98;6.78;;;;;;;;;;5041953;28;20033;-46
2023/03/05 02:45:29;;;;;;;13.73;5.90;;;;;;;;;;5048917;28;20033;-46
2023/03/05 02:47:54;;;;;;;12.38;6.03;;;;;;;;;;5049000;28;20482;-46
2023/03/05 02:50:21;;;;;;;12.70;5.45;;;;;;;;;;5046366;28;20508;-47
2023/03/05 02:52:46;;;;;;;15.07;6.10;;;;;;;;;;5047551;28;20584;-48
2023/03/05 02:55:11;;;;;;;12.68;5.13;;;;;;;;;;5047481;28;20025;-46
2023/03/05 02:57:37;;;;;;;12.25;5.72;;;;;;;;;;5048282;28;20041;-47
2023/03/05 03:00:03;;;;;;;16.73;6.07;;;;;;;;;;5047611;28;20025;-47
2023/03/05 03:02:28;;;;;;;10.52;5.15;;;;;;;;;;5048420;28;20135;-46
2023/03/05 03:04:54;;;;;;;15.75;6.57;;;;;;;;;;5047052;28;20116;-47
2023/03/05 03:07:19;;;;;;;14.07;6.40;;;;;;;;;;5034582;28;20037;-47
2023/03/05 03:09:44;;;;;;;11.98;5.40;;;;;;;;;;5039999;28;20033;-47
2023/03/05 03:12:10;;;;;;;14.15;5.80;;;;;;;;;;5047152;28;20017;-46
2023/03/05 03:14:38;;;;;;;12.68;5.55;;;;;;;;;;5044954;28;20162;-51
2023/03/05 03:17:11;;;;;;;13.00;5.75;;;;;;;;;;5025263;28;20045;-45
2023/03/05 03:19:38;;;;;;;18.67;5.80;;;;;;;;;;5027500;28;20052;-47
2023/03/05 03:22:05;;;;;;;14.80;5.97;;;;;;;;;;5046021;28;20044;-49
2023/03/05 03:24:31;;;;;;;14.48;6.00;;;;;;;;;;5032973;28;20060;-46
2023/03/05 03:26:57;;;;;;;12.93;4.82;;;;;;;;;;5006775;28;20022;-48
2023/03/05 03:29:22;;;;;;;13.98;5.97;;;;;;;;;;5008013;28;20034;-46
2023/03/05 03:31:48;;;;;;;15.57;5.40;;;;;;;;;;5007398;28;20034;-45
2023/03/05 03:34:15;;;;;;;12.10;5.72;;;;;;;;;;5006700;28;20030;-46
2023/03/05 03:36:44;;;;;;;15.88;6.50;;;;;;;;;;5007470;28;20042;-46
2023/03/05 03:39:10;;;;;;;17.50;6.40;;;;;;;;;;5007805;28;20033;-47
2023/03/05 03:41:39;;;;;;;12.73;5.38;;;;;;;;;;5006442;28;20399;-49
2023/03/05 03:44:07;;;;;;;17.13;6.22;;;;;;;;;;5006963;28;20026;-49
2023/03/05 03:46:33;;;;;;;13.98;6.00;;;;;;;;;;5007435;28;20054;-46
2023/03/05 03:48:59;;;;;;;11.25;4.88;;;;;;;;;;5007265;28;20519;-46
2023/03/05 03:51:24;;;;;;;14.57;5.90;;;;;;;;;;5021448;28;20090;-46
2023/03/05 03:53:49;;;;;;;14.38;5.50;;;;;;;;;;5024859;28;20071;-47
2023/03/05 03:56:15;;;;;;;13.80;5.60;;;;;;;;;;5026195;28;20041;-45
2023/03/05 03:58:40;;;;;;;17.90;6.03;;;;;;;;;;5026471;28;20691;-45
2023/03/05 04:01:05;;;;;;;13.85;5.55;;;;;;;;;;5019328;28;20029;-45
2023/03/05 04:03:31;;;;;;;13.10;6.15;;;;;;;;;;5026076;28;20042;-47
2023/03/05 04:05:56;;;;;;;11.55;5.38;;;;;;;;;;5026732;28;20465;-46
2023/03/05 04:08:21;;;;;;;14.45;6.45;;;;;;;;;;5026929;28;20041;-47
2023/03/05 04:10:47;;;;;;;17.05;6.18;;;;;;;;;;5026422;28;20037;-44
2023/03/05 04:13:12;;;;;;;18.75;6.50;;;;;;;;;;5023426;28;20038;-45
2023/03/05 04:15:37;;;;;;;12.68;5.68;;;;;;;;;;5025517;28;20112;-45
2023/03/05 04:18:03;;;;;;;12.05;5.68;;;;;;;;;;5026574;28;20095;-45
2023/03/05 04:20:28;;;;;;;13.93;6.03;;;;;;;;;;5042661;28;20528;-46
2023/03/05 04:22:54;;;;;;;16.02;6.32;;;;;;;;;;5046692;28;20079;-49
2023/03/05 04:25:19;;;;;;;13.88;6.20;;;;;;;;;;5045215;28;20392;-47
2023/03/05 04:27:44;;;;;;;15.55;6.35;;;;;;;;;;5046561;28;20036;-47
2023/03/05 04:30:13;;;;;;;16.33;6.38;;;;;;;;;;5045790;28;20075;-48
2023/03/05 04:32:39;;;;;;;15.05;6.82;;;;;;;;;;5046836;28;20583;-47
2023/03/05 04:35:05;;;;;;;14.25;6.30;;;;;;;;;;5044823;28;20577;-46
2023/03/05 04:37:31;;;;;;;17.83;7.32;;;;;;;;;;5046360;28;20029;-45
2023/03/05 04:39:56;;;;;;;16.45;6.63;;;;;;;;;;5046156;28;20537;-52
2023/03/05 04:42:22;;;;;;;18.13;6.47;;;;;;;;;;5041547;28;20041;-46
2023/03/05 04:44:48;;;;;;;13.43;6.15;;;;;;;;;;5023839;28;20108;-48
2023/03/05 04:47:14;;;;;;;12.43;5.63;;;;;;;;;;5024941;28;20410;-46
2023/03/05 04:49:39;;;;;;;14.43;6.10;;;;;;;;;;5025873;28;20040;-47
2023/03/05 04:52:04;;;;;;;12.77;5.80;;;;;;;;;;5023708;28;20068;-46
2023/03/05 04:54:30;;;;;;;18.25;6.50;;;;;;;;;;5023363;28;20036;-45
2023/03/05 04:56:55;;;;;;;17.55;6.55;;;;;;;;;;5025704;28;20017;-48
2023/03/05 04:59:20;;;;;;;16.38;6.47;;;;;;;;;;5025297;28;20026;-49
2023/03/05 05:01:46;;;;;;;23.13;7.80;;;;;;;;;;5021287;28;20065;-47
2023/03/05 05:04:11;;;;;;;20.23;7.55;;;;;;;;;;5041568;28;20056;-46
2023/03/05 05:06:36;;;;;;;33.35;8.02;;;;;;;;;;5046176;28;20029;-47
2023/03/05 05:09:02;;;;;;;42.92;8.05;;;;;;;;;;5030587;28;20763;-47
2023/03/05 05:11:27;;;;;;;19.38;7.55;;;;;;;;;;5021402;28;20026;-46
2023/03/05 05:13:53;;;;;;;34.22;7.35;;;;;;;;;;5025112;28;20534;-48
2023/03/05 05:16:18;;;;;;;38.13;8.00;;;;;;;;;;5025728;28;20530;-46
2023/03/05 05:18:43;;;;;;;36.90;7.85;;;;;;;;;;5034221;28;20426;-49
2023/03/05 05:21:11;;;;;;;54.08;8.48;;;;;;;;;;5045504;28;20032;-47
2023/03/05 05:23:36;;;;;;;39.92;8.55;;;;;;;;;;5045891;28;20035;-46
2023/03/05 05:26:04;;;;;;;52.35;8.20;;;;;;;;;;5045397;28;20029;-47
2023/03/05 05:28:30;;;;;;;61.67;8.68;;;;;;;;;;5045117;28;20044;-45
2023/03/05 05:30:56;;;;;;;77.75;8.90;;;;;;;;;;5030300;28;20038;-45
2023/03/05 05:33:21;;;;;;;69.30;9.02;;;;;;;;;;5019749;28;20033;-45
2023/03/05 05:35:47;;;;;;;43.90;8.18;;;;;;;;;;5026104;28;20025;-45
2023/03/05 05:38:12;;;;;;;55.65;8.80;;;;;;;;;;5025409;28;20114;-45
2023/03/05 05:40:38;;;;;;;62.47;8.30;;;;;;;;;;5038946;28;20032;-46
2023/03/05 05:43:04;;;;;;;50.33;8.75;;;;;;;;;;5046039;28;20056;-45
2023/03/05 05:45:29;;;;;;;56.30;8.75;;;;;;;;;;5044550;28;20507;-46
2023/03/05 05:47:55;;;;;;;49.80;8.27;;;;;;;;;;5045930;28;20103;-45
2023/03/05 05:50:20;;;;;;;48.28;8.15;;;;;;;;;;5045554;28;20039;-47
2023/03/05 05:52:45;;;;;;;55.45;8.85;;;;;;;;;;5026695;28;20041;-47
2023/03/05 05:55:11;;;;;;;55.88;9.35;;;;;;;;;;5030217;28;20037;-47
2023/03/05 05:57:37;;;;;;;83.05;9.75;;;;;;;;;;5043622;28;20033;-46
2023/03/05 06:00:06;;;;;;;46.13;9.90;;;;;;;;;;5044269;28;20040;-45
2023/03/05 06:02:31;;;;;;;39.13;8.88;;;;;;;;;;5032003;28;20025;-48
2023/03/05 06:04:57;;;;;;;58.13;10.05;;;;;;;;;;5046839;28;20508;-46
2023/03/05 06:07:22;;;;;;;23.42;9.07;;;;;;;;;;5048761;28;20981;-45
2023/03/05 06:09:47;;;;;;;29.77;8.40;;;;;;;;;;5026901;28;20057;-46
2023/03/05 06:12:13;;;;;;;28.55;8.25;;;;;;;;;;5028134;28;20145;-45
2023/03/05 06:14:38;;;;;;;22.67;8.13;;;;;;;;;;5029527;28;20096;-47
2023/03/05 06:17:04;;;;;;;18.70;8.23;;;;;;;;;;5028161;28;20133;-45
2023/03/05 06:19:29;;;;;;;23.95;8.30;;;;;;;;;;5037123;28;20029;-50
2023/03/05 06:21:54;;;;;;;25.42;8.95;;;;;;;;;;5045014;28;20037;-46
2023/03/05 06:24:21;;;;;;;26.55;8.82;;;;;;;;;;5025738;28;20068;-46
2023/03/05 06:26:47;;;;;;;23.70;9.68;;;;;;;;;;5024239;28;20021;-46
2023/03/05 06:29:12;;;;;;;18.75;9.20;;;;;;;;;;5026254;28;20087;-46
2023/03/05 06:31:38;;;;;;;21.85;9.20;;;;;;;;;;5024686;28;20033;-46
2023/03/05 06:34:03;;;;;;;18.02;8.57;;;;;;;;;;5026147;28;20052;-46
2023/03/05 06:36:29;;;;;;;21.85;9.10;;;;;;;;;;5028456;28;20424;-48
2023/03/05 06:38:55;;;;;;;22.70;8.85;;;;;;;;;;5027902;28;20033;-49
2023/03/05 06:41:26;;;;;;;22.75;9.27;;;;;;;;;;5028214;28;20043;-49
2023/03/05 06:43:52;;;;;;;23.73;8.88;;;;;;;;;;5028089;28;20041;-49
2023/03/05 06:46:21;;;;;;;20.30;7.93;;;;;;;;;;5027607;28;20056;-46
2023/03/05 06:48:47;;;;;;;22.17;9.00;;;;;;;;;;5028352;28;20124;-46
2023/03/05 06:51:23;;;;;;;26.35;8.93;;;;;;;;;;5024583;28;20026;-48
2023/03/05 06:53:49;;;;;;;22.80;8.55;;;;;;;;;;5021361;28;20028;-45
2023/03/05 06:56:15;;;;;;;19.70;8.63;;;;;;;;;;5028015;28;20030;-46
2023/03/05 06:58:41;;;;;;;22.98;10.82;;;;;;;;;;5025269;28;20487;-46
2023/03/05 07:01:07;;;;;;;29.88;11.65;;;;;;;;;;5027572;28;20518;-50
2023/03/05 07:03:34;;;;;;;28.23;10.82;;;;;;;;;;5026707;28;20041;-47
2023/03/05 07:06:05;;;;;;;25.15;10.45;;;;;;;;;;5024755;28;20025;-47
2023/03/05 07:08:31;;;;;;;31.90;10.32;;;;;;;;;;5027765;28;20021;-48
2023/03/05 07:10:57;;;;;;;28.17;9.90;;;;;;;;;;5027345;28;20560;-48
2023/03/05 07:13:23;;;;;;;21.48;9.32;;;;;;;;;;5027388;28;20172;-45
2023/03/05 07:15:49;;;;;;;21.77;9.40;;;;;;;;;;5021842;28;20384;-47
2023/03/05 07:18:14;;;;;;;32.10;10.68;;;;;;;;;;5026052;28;20047;-47
2023/03/05 07:20:39;;;;;;;25.23;9.70;;;;;;;;;;5045374;28;20035;-44
2023/03/05 07:23:05;;;;;;;20.95;8.70;;;;;;;;;;5028565;28;20030;-47
2023/03/05 07:25:30;;;;;;;22.75;10.70;;;;;;;;;;5030081;28;20041;-48
2023/03/05 07:27:56;;;;;;;30.85;9.90;;;;;;;;;;5047187;28;20033;-48
2023/03/05 07:30:21;;;;;;;26.17;10.07;;;;;;;;;;5047350;28;20029;-46
2023/03/05 07:32:46;;;;;;;25.10;10.27;;;;;;;;;;5026436;28;20024;-51
2023/03/05 07:35:12;;;;;;;29.25;10.55;;;;;;;;;;5033985;28;20063;-44
2023/03/05 07:37:37;;;;;;;24.42;9.82;;;;;;;;;;5045875;28;20033;-46
2023/03/05 07:40:04;;;;;;;24.80;9.70;;;;;;;;;;5046763;28;20130;-48
2023/03/05 07:42:29;;;;;;;22.58;9.55;;;;;;;;;;5046440;28;20399;-47
2023/03/05 07:44:55;;;;;;;24.25;9.68;;;;;;;;;;5047459;28;20517;-47
2023/03/05 07:47:22;;;;;;;24.20;10.15;;;;;;;;;;5040716;28;20022;-45
2023/03/05 07:49:47;;;;;;;29.17;10.35;;;;;;;;;;5026792;28;20100;-48
2023/03/05 07:52:13;;;;;;;28.63;10.52;;;;;;;;;;5025613;28;20519;-47
2023/03/05 07:54:38;;;;;;;22.20;8.85;;;;;;;;;;5037286;28;20040;-45
2023/03/05 07:57:05;;;;;;;28.80;10.25;;;;;;;;;;5046227;28;20017;-48
2023/03/05 07:59:30;;;;;;;31.38;10.05;;;;;;;;;;5042681;28;20022;-47
2023/03/05 08:01:55;;;;;;;26.98;9.60;;;;;;;;;;5018966;28;20040;-47
2023/03/05 08:04:21;;;;;;;16.20;7.10;;;;;;;;;;5020658;28;20037;-46
2023/03/05 08:06:46;;;;;;;19.33;7.85;;;;;;;;;;5025952;28;20103;-45
2023/03/05 08:09:12;;;;;;;16.77;6.53;;;;;;;;;;5027522;28;20021;-47
2023/03/05 08:11:39;;;;;;;15.40;5.80;;;;;;;;;;5046224;28;20021;-46
2023/03/05 08:14:04;;;;;;;13.63;4.72;;;;;;;;;;5037070;28;20125;-47
2023/03/05 08:16:30;;;;;;;13.88;5.85;;;;;;;;;;5023167;28;20136;-46
2023/03/05 08:18:56;;;;;;;12.82;5.43;;;;;;;;;;5016942;28;20041;-46
2023/03/05 08:21:32;;;;;;;13.40;4.80;;;;;;;;;;5022842;28;20136;-47
2023/03/05 08:23:59;;;;;;;9.38;3.30;;;;;;;;;;5025387;28;20048;-49
2023/03/05 08:26:26;;;;;;;9.73;4.30;;;;;;;;;;5025586;28;20104;-49
2023/03/05 08:28:52;;;;;;;8.77;3.42;;;;;;;;;;5025837;28;20037;-48
2023/03/05 08:31:20;;;;;;;9.77;4.13;;;;;;;;;;5025962;28;20080;-49
2023/03/05 08:33:46;;;;;;;8.00;3.42;;;;;;;;;;5018331;28;20030;-47
2023/03/05 08:36:12;;;;;;;7.32;3.22;;;;;;;;;;5025152;28;20026;-46
2023/03/05 08:38:37;;;;;;;5.57;2.70;;;;;;;;;;5025687;28;20048;-46
2023/03/05 08:41:03;;;;;;;3.72;2.25;;;;;;;;;;5025348;28;20475;-46
2023/03/05 08:43:29;;;;;;;7.15;2.72;;;;;;;;;;5025642;28;20037;-50
2023/03/05 08:45:55;;;;;;;3.78;2.05;;;;;;;;;;5025898;28;20516;-48
2023/03/05 08:48:20;;;;;;;5.70;2.50;;;;;;;;;;5019001;28;20048;-48
2023/03/05 08:50:46;;;;;;;6.50;2.47;;;;;;;;;;5019852;28;20040;-46
2023/03/05 08:53:11;;;;;;;4.78;2.38;;;;;;;;;;5025348;28;20068;-47
2023/03/05 08:55:37;;;;;;;4.85;2.22;;;;;;;;;;5025821;28;20072;-46
2023/03/05 08:58:02;;;;;;;3.60;1.77;;;;;;;;;;5025759;28;20025;-46
2023/03/05 09:00:28;;;;;;;4.93;2.63;;;;;;;;;;5025742;28;20033;-48
2023/03/05 09:02:53;;;;;;;6.63;2.90;;;;;;;;;;5016654;28;20675;-48
2023/03/05 09:05:18;;;;;;;10.10;3.80;;;;;;;;;;5005005;28;20042;-47
2023/03/05 09:07:44;;;;;;;8.85;4.05;;;;;;;;;;5005616;28;20113;-47
2023/03/05 09:10:12;;;;;;;13.82;4.43;;;;;;;;;;5007115;28;20052;-50
2023/03/05 09:12:37;;;;;;;13.43;4.80;;;;;;;;;;5017811;28;20121;-49
2023/03/05 09:15:07;;;;;;;11.30;4.50;;;;;;;;;;5024719;28;20100;-46
2023/03/05 09:17:33;;;;;;;18.63;7.57;;;;;;;;;;5025026;28;20099;-50
2023/03/05 09:19:59;;;;;;;15.60;6.18;;;;;;;;;;5037220;28;20041;-48
2023/03/05 09:22:24;;;;;;;15.93;5.78;;;;;;;;;;5040002;28;20052;-48
2023/03/05 09:24:49;;;;;;;14.48;6.00;;;;;;;;;;5044371;28;20091;-50
2023/03/05 09:27:15;;;;;;;16.60;6.07;;;;;;;;;;5044323;28;20111;-48
2023/03/05 09:29:40;;;;;;;17.55;5.90;;;;;;;;;;5035834;28;20034;-45
2023/03/05 09:32:06;;;;;;;16.20;6.15;;;;;;;;;;5024220;28;20511;-48
2023/03/05 09:34:31;;;;;;;15.38;6.03;;;;;;;;;;5018635;28;20052;-50
2023/03/05 09:36:57;;;;;;;16.92;6.93;;;;;;;;;;5015762;28;20095;-46
2023/03/05 09:39:22;;;;;;;12.02;4.72;;;;;;;;;;5019710;28;20037;-47
2023/03/05 09:41:59;;;;;;;14.07;5.68;;;;;;;;;;5021374;28;20044;-46
2023/03/05 09:44:40;;;;;;;14.02;5.13;;;;;;;;;;5023160;28;20051;-48
2023/03/05 09:47:43;;;;;;;12.73;4.90;;;;;;;;;;5028764;28;20577;-45
2023/03/05 09:50:34;;;;;;;11.50;5.38;;;;;;;;;;5022994;28;20625;-48
2023/03/05 09:53:12;;;;;;;13.50;5.05;;;;;;;;;;5028473;28;20087;-46
2023/03/05 09:55:53;;;;;;;10.85;3.20;;;;;;;;;;5022810;28;20033;-49
2023/03/05 09:58:23;;;;;;;10.80;3.00;;;;;;;;;;5029245;28;20044;-47
2023/03/05 10:00:54;;;;;;;8.10;2.60;;;;;;;;;;5022572;28;20115;-47
2023/03/05 10:03:25;;;;;;;3.97;2.13;;;;;;;;;;5021624;28;20171;-46
2023/03/05 10:06:08;;;;;;;8.23;3.22;;;;;;;;;;5021163;28;20739;-46
2023/03/05 10:08:59;;;;;;;5.72;2.22;;;;;;;;;;5025079;28;20045;-49
2023/03/05 10:11:53;;;;;;;12.05;2.53;;;;;;;;;;5000254;28;20049;-46
2023/03/05 10:14:18;;;;;;;;;;;;;;;;;;5022206;28;20045;-46
2023/03/05 10:16:52;;;;;;;5.73;2.90;;;;;;;;;;5018089;28;19931;-48
2023/03/05 10:19:31;;;;;;;7.85;2.97;;;;;;;;;;5022077;28;20276;-46
2023/03/05 10:22:11;;;;;;;6.82;2.97;;;;;;;;;;5026005;28;20546;-47
2023/03/05 10:24:54;;;;;;;6.50;2.22;;;;;;;;;;5019391;28;20067;-46
2023/03/05 10:27:32;;;;;;;3.30;1.67;;;;;;;;;;5025174;28;20065;-46
2023/03/05 10:29:57;;;;;;;8.93;4.00;;;;;;;;;;5022365;28;20140;-46
2023/03/05 10:32:34;;;;;;;10.00;3.88;;;;;;;;;;5022678;28;20137;-51
2023/03/05 10:35:27;;;;;;;13.05;4.78;;;;;;;;;;5019657;28;20056;-49
2023/03/05 10:38:47;;;;;;;10.20;4.45;;;;;;;;;;5018057;28;20065;-45
2023/03/05 10:41:27;;;;;;;7.80;3.25;;;;;;;;;;5003396;28;20116;-47
2023/03/05 10:44:02;;;;;;;9.48;4.15;;;;;;;;;;5009204;28;20125;-45
2023/03/05 10:46:35;;;;;;;7.93;3.50;;;;;;;;;;5002776;28;20184;-46
2023/03/05 10:49:04;;;;;;;9.07;3.25;;;;;;;;;;4995629;28;20586;-46
2023/03/05 10:51:37;;;;;;;7.25;3.58;;;;;;;;;;5002762;28;20125;-45
2023/03/05 10:54:17;;;;;;;7.07;3.60;;;;;;;;;;5000804;28;20022;-47
2023/03/05 10:56:42;;;;;;;10.52;3.88;;;;;;;;;;4999557;28;20025;-48
2023/03/05 10:59:08;;;;;;;6.20;2.55;;;;;;;;;;5001910;28;20040;-47
2023/03/05 11:01:36;;;;;;;9.63;3.75;;;;;;;;;;4999618;28;20133;-47
2023/03/05 11:04:02;;;;;;;6.97;3.42;;;;;;;;;;5007259;28;20041;-47
2023/03/05 11:06:40;;;;;;;7.47;3.20;;;;;;;;;;5005303;28;20486;-47
2023/03/05 11:09:23;;;;;;;5.32;2.58;;;;;;;;;;5000540;28;20022;-47
2023/03/05 11:12:10;;;;;;;5.68;2.58;;;;;;;;;;5001675;28;20025;-46
2023/03/05 11:15:00;;;;;;;4.75;2.20;;;;;;;;;;5001231;28;20510;-46
2023/03/05 11:18:01;;;;;;;6.57;2.50;;;;;;;;;;5014316;28;20518;-48
2023/03/05 11:20:27;;;;;;;6.63;2.15;;;;;;;;;;4999771;28;20068;-46
2023/03/05 11:23:17;;;;;;;3.58;1.85;;;;;;;;;;5006632;28;20415;-46
2023/03/05 11:26:15;;;;;;;4.82;2.30;;;;;;;;;;5005971;28;20038;-45
2023/03/05 11:28:59;;;;;;;6.45;3.38;;;;;;;;;;5011685;28;20048;-48
2023/03/05 11:31:28;;;;;;;1.50;0.98;;;;;;;;;;5021409;28;20041;-47
2023/03/05 11:33:56;;;;;;;4.53;1.98;;;;;;;;;;5020734;28;20037;-47
2023/03/05 11:36:28;;;;;;;3.33;2.05;;;;;;;;;;5025566;28;20036;-50
2023/03/05 11:39:06;;;;;;;2.88;1.60;;;;;;;;;;5024518;28;20040;-48
2023/03/05 11:41:34;;;;;;;1.88;1.20;;;;;;;;;;5022209;28;20541;-48
2023/03/05 11:44:02;;;;;;;3.70;1.98;;;;;;;;;;5021814;28;20056;-46
2023/03/05 11:46:33;;;;;;;2.30;1.50;;;;;;;;;;5022254;28;20037;-48
2023/03/05 11:48:58;;;;;;;2.40;1.40;;;;;;;;;;5021171;28;20044;-46
2023/03/05 11:51:47;;;;;;;4.05;1.55;;;;;;;;;;5020674;28;20077;-47
2023/03/05 11:54:21;;;;;;;1.85;1.15;;;;;;;;;;5020418;28;20021;-48
2023/03/05 11:56:48;;;;;;;3.00;1.83;;;;;;;;;;5018106;28;20051;-45
2023/03/05 11:59:18;;;;;;;2.42;1.58;;;;;;;;;;5019469;28;20034;-45
2023/03/05 12:01:51;;;;;;;3.20;1.90;;;;;;;;;;5013984;28;20141;-47
2023/03/05 12:04:18;;;;;;;3.33;1.67;;;;;;;;;;5021493;28;20033;-47
2023/03/05 12:06:50;;;;;;;3.58;2.22;;;;;;;;;;5017126;28;20045;-49
2023/03/05 12:09:41;;;;;;;3.45;1.88;;;;;;;;;;5023290;28;20433;-48
2023/03/05 12:12:41;;;;;;;4.63;1.92;;;;;;;;;;5018056;28;20470;-47
2023/03/05 12:15:46;;;;;;;3.55;2.28;;;;;;;;;;5012752;28;20025;-49
2023/03/05 12:18:17;;;;;;;3.17;1.73;;;;;;;;;;5000070;28;20452;-46
2023/03/05 12:20:47;;;;;;;2.88;1.73;;;;;;;;;;5017769;28;20146;-49
2023/03/05 12:23:16;;;;;;;3.33;1.83;;;;;;;;;;5018797;28;20034;-47
2023/03/05 12:25:50;;;;;;;3.30;1.92;;;;;;;;;;5020976;28;20506;-47
2023/03/05 12:28:41;;;;;;;3.97;1.92;;;;;;;;;;5023598;28;20030;-47
2023/03/05 12:31:36;;;;;;;4.78;2.00;;;;;;;;;;5018695;28;20132;-46
2023/03/05 12:34:40;;;;;;;4.72;1.95;;;;;;;;;;5019379;28;20120;-46
2023/03/05 12:37:13;;;;;;;3.83;2.00;;;;;;;;;;5016589;28;20044;-46
2023/03/05 12:39:46;;;;;;;5.10;1.83;;;;;;;;;;5020418;28;20048;-47
2023/03/05 12:42:26;;;;;;;;;;;;;;;;;;5019256;28;20077;-48
2023/03/05 12:45:21;;;;;;;4.97;2.20;;;;;;;;;;5022494;28;20386;-46
2023/03/05 12:47:55;;;;;;;4.45;1.73;;;;;;;;;;5011713;28;20072;-48
2023/03/05 12:50:26;;;;;;;6.15;1.75;;;;;;;;;;5017901;28;21845;-46
2023/03/05 12:53:13;;;;;;;3.40;2.15;;;;;;;;;;5013718;28;20712;-45
2023/03/05 12:55:44;;;;;;;5.38;1.85;;;;;;;;;;5019137;28;20604;-47
2023/03/05 12:58:37;;;;;;;2.95;2.05;;;;;;;;;;5022231;28;20088;-46
2023/03/05 13:01:30;;;;;;;4.97;2.67;;;;;;;;;;5019171;28;20033;-47
2023/03/05 13:04:20;;;;;;;4.25;2.15;;;;;;;;;;5023853;28;20078;-46
2023/03/05 13:06:45;;;;;;;4.50;1.73;;;;;;;;;;5016769;28;20075;-46
2023/03/05 13:09:24;;;;;;;2.30;1.35;;;;;;;;;;5018399;28;20029;-47
2023/03/05 13:11:52;;;;;;;7.00;1.90;;;;;;;;;;5021248;28;20025;-46
2023/03/05 13:14:33;;;;;;;5.88;1.90;;;;;;;;;;5025579;28;20029;-48
2023/03/05 13:16:59;;;;;;;3.40;1.73;;;;;;;;;;5021497;28;20531;-48
2023/03/05 13:19:24;;;;;;;4.30;1.40;;;;;;;;;;5026113;28;20033;-47
2023/03/05 13:22:09;;;;;;;2.63;1.40;;;;;;;;;;5022089;28;20586;-47
2023/03/05 13:24:34;;;;;;;2.50;1.70;;;;;;;;;;5025347;28;20126;-45
2023/03/05 13:26:59;;;;;;;4.35;1.85;;;;;;;;;;5023917;28;20493;-47
2023/03/05 13:29:27;;;;;;;3.00;1.70;;;;;;;;;;5023246;28;20725;-46
2023/03/05 13:32:01;;;;;;;3.78;1.90;;;;;;;;;;5022021;28;20041;-46
2023/03/05 13:34:37;;;;;;;4.72;2.10;;;;;;;;;;5023184;28;20056;-45
2023/03/05 13:37:06;;;;;;;3.92;2.30;;;;;;;;;;5023545;28;20072;-50
2023/03/05 13:39:41;;;;;;;6.57;2.80;;;;;;;;;;5025781;28;20037;-48
2023/03/05 13:42:16;;;;;;;4.32;2.22;;;;;;;;;;5015975;28;20037;-46
2023/03/05 13:44:42;;;;;;;3.55;1.90;;;;;;;;;;5018396;28;20029;-49
2023/03/05 13:47:17;;;;;;;3.08;2.00;;;;;;;;;;5015635;28;20037;-47
2023/03/05 13:49:43;;;;;;;4.28;2.00;;;;;;;;;;5022307;28;20567;-49
2023/03/05 13:52:09;;;;;;;4.68;2.05;;;;;;;;;;5019514;28;20132;-48
2023/03/05 13:54:34;;;;;;;4.10;2.33;;;;;;;;;;5025263;28;20041;-49
2023/03/05 13:57:04;;;;;;;6.07;2.78;;;;;;;;;;5023210;28;20510;-47
2023/03/05 13:59:35;;;;;;;7.47;2.42;;;;;;;;;;5024558;28;20029;-46
2023/03/05 14:02:04;;;;;;;4.03;2.20;;;;;;;;;;5022474;28;20490;-47
2023/03/05 14:04:40;;;;;;;4.32;2.35;;;;;;;;;;5022071;28;20037;-48
2023/03/05 14:07:15;;;;;;;5.13;2.38;;;;;;;;;;5017446;28;20048;-46
2023/03/05 14:09:40;;;;;;;7.07;3.13;;;;;;;;;;5025523;28;20033;-49
2023/03/05 14:12:23;;;;;;;5.45;3.10;;;;;;;;;;5026995;28;20415;-47
2023/03/05 14:14:49;;;;;;;6.65;2.72;;;;;;;;;;5023873;28;20025;-48
2023/03/05 14:17:26;;;;;;;4.82;2.95;;;;;;;;;;5021257;28;20860;-50
2023/03/05 14:20:06;;;;;;;5.45;3.42;;;;;;;;;;5034802;28;20123;-47
2023/03/05 14:22:37;;;;;;;5.00;2.25;;;;;;;;;;5022848;28;20033;-46
2023/03/05 14:25:04;;;;;;;6.38;3.00;;;;;;;;;;5020020;28;20041;-47
2023/03/05 14:27:33;;;;;;;11.52;2.75;;;;;;;;;;5020756;28;20083;-46
2023/03/05 14:29:59;;;;;;;5.07;3.10;;;;;;;;;;5027362;28;20036;-48
2023/03/05 14:32:33;;;;;;;6.13;3.10;;;;;;;;;;5021740;28;20025;-48
2023/03/05 14:35:00;;;;;;;5.90;2.92;;;;;;;;;;5023629;28;20041;-47
2023/03/05 14:37:33;;;;;;;7.60;3.17;;;;;;;;;;5026162;28;20626;-49
2023/03/05 14:40:05;;;;;;;9.13;4.10;;;;;;;;;;5021234;28;20033;-50
2023/03/05 14:42:50;;;;;;;5.57;3.03;;;;;;;;;;5017624;28;20422;-47
2023/03/05 14:45:19;;;;;;;7.78;4.05;;;;;;;;;;5020315;28;20077;-47
2023/03/05 14:47:45;;;;;;;15.23;7.00;;;;;;;;;;5020934;28;20052;-50
2023/03/05 14:50:16;;;;;;;19.83;6.07;;;;;;;;;;5022684;28;20069;-50